Southwest Washington Regional Airport Kelso US
ICAO: KKLS
IATA: KLS
Category: Medium
Scheduled Services: No

Elevation: 20 ft
TransAlt. 18000 ft.

Airport Communications:
AWOS 3:135.075
SEATTLE CNTR:124.2
SEATTLE RDO:122.25
CTAF/UNICOM:122.8

KKLS Zoom In..

If you have problems with the map follow the link
https://www.worldairports.se/pages/airport.php?
ICAO=KKLS

Runways:

(A) RW 12 length 4391 ft width 100 ft
---- / hdg 123

(B) RW 30 length 4391 ft width 100 ft
---- / hdg 303

Location; KKLS
Day. 16 / Time. 10.56 Zulu
* Altimeter: 30.25
* Temperature: 08° c. 46.4°f.
* Wind from: 150° Speed 04 kn.
Dewpoint: 08° c.
Visibility: 8 Statute Miles.
Clouds: Broken 1500 ft.
Clouds: Overcast 2400 ft.

KKLS 161056Z AUTO 15004KT 8SM BKN015 OVC024 08/08 A3025 RMK AO2 SLP249 T00830078


Wind From 150°
Speed 04 kn.

 
 
jpsmedia.com for Web Design worldairports.se 2018   terms of use